sensor_id;sensor_type;location;lat;lon;timestamp;P1;durP1;ratioP1;P2;durP2;ratioP2
14849;SDS011;7517;48.400;11.770;2023-03-31T00:00:43;1.63;;;1.50;;
14849;SDS011;7517;48.400;11.770;2023-03-31T00:03:11;1.90;;;1.47;;
14849;SDS011;7517;48.400;11.770;2023-03-31T00:05:46;1.60;;;1.37;;
14849;SDS011;7517;48.400;11.770;2023-03-31T00:08:19;2.07;;;1.70;;
14849;SDS011;7517;48.400;11.770;2023-03-31T00:10:48;2.67;;;1.30;;
14849;SDS011;7517;48.400;11.770;2023-03-31T00:13:16;2.37;;;1.90;;
14849;SDS011;7517;48.400;11.770;2023-03-31T00:15:43;1.67;;;1.40;;
14849;SDS011;7517;48.400;11.770;2023-03-31T00:18:10;1.77;;;1.53;;
14849;SDS011;7517;48.400;11.770;2023-03-31T00:20:38;1.93;;;1.47;;
14849;SDS011;7517;48.400;11.770;2023-03-31T00:23:07;2.53;;;1.50;;
14849;SDS011;7517;48.400;11.770;2023-03-31T00:25:36;1.50;;;1.40;;
14849;SDS011;7517;48.400;11.770;2023-03-31T00:28:06;2.27;;;1.70;;
14849;SDS011;7517;48.400;11.770;2023-03-31T00:30:33;1.70;;;1.50;;
14849;SDS011;7517;48.400;11.770;2023-03-31T00:33:01;2.20;;;1.40;;
14849;SDS011;7517;48.400;11.770;2023-03-31T00:35:29;1.60;;;1.50;;
14849;SDS011;7517;48.400;11.770;2023-03-31T00:37:57;2.40;;;1.50;;
14849;SDS011;7517;48.400;11.770;2023-03-31T00:40:24;3.03;;;1.80;;
14849;SDS011;7517;48.400;11.770;2023-03-31T00:42:54;2.07;;;1.60;;
14849;SDS011;7517;48.400;11.770;2023-03-31T00:45:25;1.60;;;1.50;;
14849;SDS011;7517;48.400;11.770;2023-03-31T00:47:57;1.63;;;1.53;;
14849;SDS011;7517;48.400;11.770;2023-03-31T00:50:34;2.70;;;1.50;;
14849;SDS011;7517;48.400;11.770;2023-03-31T00:53:11;3.00;;;2.10;;
14849;SDS011;7517;48.400;11.770;2023-03-31T00:55:45;3.77;;;1.80;;
14849;SDS011;7517;48.400;11.770;2023-03-31T00:58:18;2.07;;;1.40;;
14849;SDS011;7517;48.400;11.770;2023-03-31T01:00:52;1.90;;;1.70;;
14849;SDS011;7517;48.400;11.770;2023-03-31T01:03:23;1.70;;;1.60;;
14849;SDS011;7517;48.400;11.770;2023-03-31T01:05:51;2.77;;;1.93;;
14849;SDS011;7517;48.400;11.770;2023-03-31T01:08:24;2.27;;;1.50;;
14849;SDS011;7517;48.400;11.770;2023-03-31T01:10:53;2.53;;;1.83;;
14849;SDS011;7517;48.400;11.770;2023-03-31T01:13:27;2.20;;;1.80;;
14849;SDS011;7517;48.400;11.770;2023-03-31T01:15:56;1.40;;;1.30;;
14849;SDS011;7517;48.400;11.770;2023-03-31T01:18:24;2.60;;;1.73;;
14849;SDS011;7517;48.400;11.770;2023-03-31T01:21:12;3.33;;;1.60;;
14849;SDS011;7517;48.400;11.770;2023-03-31T01:27:51;1.57;;;1.40;;
14849;SDS011;7517;48.400;11.770;2023-03-31T01:30:36;1.70;;;1.50;;
14849;SDS011;7517;48.400;11.770;2023-03-31T01:37:17;2.00;;;1.70;;
14849;SDS011;7517;48.400;11.770;2023-03-31T01:40:36;6.30;;;1.83;;
14849;SDS011;7517;48.400;11.770;2023-03-31T01:43:19;2.70;;;1.80;;
14849;SDS011;7517;48.400;11.770;2023-03-31T01:45:53;1.80;;;1.70;;
14849;SDS011;7517;48.400;11.770;2023-03-31T01:48:31;2.27;;;1.70;;
14849;SDS011;7517;48.400;11.770;2023-03-31T01:51:11;2.90;;;1.93;;
14849;SDS011;7517;48.400;11.770;2023-03-31T01:53:44;3.10;;;2.43;;
14849;SDS011;7517;48.400;11.770;2023-03-31T01:56:23;2.80;;;1.97;;
14849;SDS011;7517;48.400;11.770;2023-03-31T01:58:57;2.47;;;2.07;;
14849;SDS011;7517;48.400;11.770;2023-03-31T02:01:33;1.47;;;1.37;;
14849;SDS011;7517;48.400;11.770;2023-03-31T02:04:09;2.30;;;2.00;;
14849;SDS011;7517;48.400;11.770;2023-03-31T02:06:44;2.43;;;1.63;;
14849;SDS011;7517;48.400;11.770;2023-03-31T02:09:21;2.77;;;1.57;;
14849;SDS011;7517;48.400;11.770;2023-03-31T02:11:54;2.80;;;1.83;;
14849;SDS011;7517;48.400;11.770;2023-03-31T02:14:25;2.40;;;1.77;;
14849;SDS011;7517;48.400;11.770;2023-03-31T02:16:56;2.87;;;1.53;;
14849;SDS011;7517;48.400;11.770;2023-03-31T02:19:26;2.00;;;1.80;;
14849;SDS011;7517;48.400;11.770;2023-03-31T02:22:03;2.50;;;1.80;;
14849;SDS011;7517;48.400;11.770;2023-03-31T02:24:35;2.20;;;1.97;;
14849;SDS011;7517;48.400;11.770;2023-03-31T02:27:08;2.93;;;1.97;;
14849;SDS011;7517;48.400;11.770;2023-03-31T02:29:42;1.80;;;1.70;;
14849;SDS011;7517;48.400;11.770;2023-03-31T02:32:11;1.87;;;1.60;;
14849;SDS011;7517;48.400;11.770;2023-03-31T02:34:47;1.73;;;1.63;;
14849;SDS011;7517;48.400;11.770;2023-03-31T02:37:16;2.43;;;1.90;;
14849;SDS011;7517;48.400;11.770;2023-03-31T02:39:44;3.30;;;1.83;;
14849;SDS011;7517;48.400;11.770;2023-03-31T02:42:16;3.60;;;2.10;;
14849;SDS011;7517;48.400;11.770;2023-03-31T02:44:45;2.80;;;1.90;;
14849;SDS011;7517;48.400;11.770;2023-03-31T02:47:13;2.20;;;2.00;;
14849;SDS011;7517;48.400;11.770;2023-03-31T02:49:44;2.30;;;2.10;;
14849;SDS011;7517;48.400;11.770;2023-03-31T02:52:20;2.23;;;2.03;;
14849;SDS011;7517;48.400;11.770;2023-03-31T02:55:10;2.90;;;1.93;;
14849;SDS011;7517;48.400;11.770;2023-03-31T02:58:25;3.10;;;1.60;;
14849;SDS011;7517;48.400;11.770;2023-03-31T03:01:14;2.07;;;1.97;;
14849;SDS011;7517;48.400;11.770;2023-03-31T03:04:02;2.00;;;1.90;;
14849;SDS011;7517;48.400;11.770;2023-03-31T03:06:53;3.30;;;2.17;;
14849;SDS011;7517;48.400;11.770;2023-03-31T03:09:33;2.00;;;1.80;;
14849;SDS011;7517;48.400;11.770;2023-03-31T03:12:12;2.43;;;2.10;;
14849;SDS011;7517;48.400;11.770;2023-03-31T03:14:51;2.90;;;2.20;;
14849;SDS011;7517;48.400;11.770;2023-03-31T03:17:27;2.20;;;2.00;;
14849;SDS011;7517;48.400;11.770;2023-03-31T03:20:02;2.80;;;2.30;;
14849;SDS011;7517;48.400;11.770;2023-03-31T03:22:32;2.10;;;2.00;;
14849;SDS011;7517;48.400;11.770;2023-03-31T03:25:00;3.00;;;2.70;;
14849;SDS011;7517;48.400;11.770;2023-03-31T03:27:27;2.33;;;2.13;;
14849;SDS011;7517;48.400;11.770;2023-03-31T03:29:56;2.77;;;2.57;;
14849;SDS011;7517;48.400;11.770;2023-03-31T03:32:24;2.20;;;2.10;;
14849;SDS011;7517;48.400;11.770;2023-03-31T03:34:55;3.93;;;2.90;;
14849;SDS011;7517;48.400;11.770;2023-03-31T03:37:22;2.70;;;2.30;;
14849;SDS011;7517;48.400;11.770;2023-03-31T03:39:50;2.60;;;2.30;;
14849;SDS011;7517;48.400;11.770;2023-03-31T03:42:18;2.43;;;2.23;;
14849;SDS011;7517;48.400;11.770;2023-03-31T03:44:46;3.20;;;2.87;;
14849;SDS011;7517;48.400;11.770;2023-03-31T03:47:15;3.30;;;2.60;;
14849;SDS011;7517;48.400;11.770;2023-03-31T03:49:43;2.73;;;2.53;;
14849;SDS011;7517;48.400;11.770;2023-03-31T03:52:12;3.27;;;2.80;;
14849;SDS011;7517;48.400;11.770;2023-03-31T03:54:40;3.50;;;2.60;;
14849;SDS011;7517;48.400;11.770;2023-03-31T03:57:07;2.80;;;2.47;;
14849;SDS011;7517;48.400;11.770;2023-03-31T03:59:35;3.90;;;3.03;;
14849;SDS011;7517;48.400;11.770;2023-03-31T04:02:02;2.40;;;2.20;;
14849;SDS011;7517;48.400;11.770;2023-03-31T04:04:31;3.03;;;2.50;;
14849;SDS011;7517;48.400;11.770;2023-03-31T04:06:59;4.27;;;2.47;;
14849;SDS011;7517;48.400;11.770;2023-03-31T04:09:26;2.67;;;2.33;;
14849;SDS011;7517;48.400;11.770;2023-03-31T04:11:54;2.30;;;2.10;;
14849;SDS011;7517;48.400;11.770;2023-03-31T04:14:23;2.53;;;2.20;;
14849;SDS011;7517;48.400;11.770;2023-03-31T04:16:50;3.30;;;2.33;;
14849;SDS011;7517;48.400;11.770;2023-03-31T04:19:20;3.40;;;2.30;;
14849;SDS011;7517;48.400;11.770;2023-03-31T04:21:53;3.10;;;2.37;;
14849;SDS011;7517;48.400;11.770;2023-03-31T04:24:26;4.23;;;2.30;;
14849;SDS011;7517;48.400;11.770;2023-03-31T04:26:56;5.07;;;2.90;;
14849;SDS011;7517;48.400;11.770;2023-03-31T04:29:26;3.43;;;2.43;;
14849;SDS011;7517;48.400;11.770;2023-03-31T04:31:57;2.77;;;2.30;;
14849;SDS011;7517;48.400;11.770;2023-03-31T04:34:25;2.53;;;2.30;;
14849;SDS011;7517;48.400;11.770;2023-03-31T04:37:00;2.97;;;2.63;;
14849;SDS011;7517;48.400;11.770;2023-03-31T04:39:29;3.13;;;2.30;;
14849;SDS011;7517;48.400;11.770;2023-03-31T04:41:57;4.77;;;2.43;;
14849;SDS011;7517;48.400;11.770;2023-03-31T04:44:26;2.70;;;2.50;;
14849;SDS011;7517;48.400;11.770;2023-03-31T04:46:54;3.40;;;2.63;;
14849;SDS011;7517;48.400;11.770;2023-03-31T04:49:22;2.50;;;2.30;;
14849;SDS011;7517;48.400;11.770;2023-03-31T04:51:50;3.10;;;2.70;;
14849;SDS011;7517;48.400;11.770;2023-03-31T04:54:19;3.30;;;2.70;;
14849;SDS011;7517;48.400;11.770;2023-03-31T04:56:46;4.37;;;2.70;;
14849;SDS011;7517;48.400;11.770;2023-03-31T04:59:14;3.23;;;2.53;;
14849;SDS011;7517;48.400;11.770;2023-03-31T05:01:41;3.63;;;2.83;;
14849;SDS011;7517;48.400;11.770;2023-03-31T05:04:10;5.53;;;3.00;;
14849;SDS011;7517;48.400;11.770;2023-03-31T05:06:37;6.00;;;2.90;;
14849;SDS011;7517;48.400;11.770;2023-03-31T05:09:05;4.17;;;2.50;;
14849;SDS011;7517;48.400;11.770;2023-03-31T05:11:35;4.30;;;3.40;;
14849;SDS011;7517;48.400;11.770;2023-03-31T05:14:03;3.30;;;2.93;;
14849;SDS011;7517;48.400;11.770;2023-03-31T05:16:30;2.93;;;2.50;;
14849;SDS011;7517;48.400;11.770;2023-03-31T05:18:57;4.53;;;3.23;;
14849;SDS011;7517;48.400;11.770;2023-03-31T05:21:27;5.43;;;2.70;;
14849;SDS011;7517;48.400;11.770;2023-03-31T05:23:55;5.17;;;2.77;;
14849;SDS011;7517;48.400;11.770;2023-03-31T05:26:23;4.07;;;2.67;;
14849;SDS011;7517;48.400;11.770;2023-03-31T05:28:53;5.50;;;3.27;;
14849;SDS011;7517;48.400;11.770;2023-03-31T05:31:21;3.00;;;2.70;;
14849;SDS011;7517;48.400;11.770;2023-03-31T05:33:48;4.57;;;2.73;;
14849;SDS011;7517;48.400;11.770;2023-03-31T05:36:16;3.43;;;2.63;;
14849;SDS011;7517;48.400;11.770;2023-03-31T05:38:47;3.07;;;2.70;;
14849;SDS011;7517;48.400;11.770;2023-03-31T05:41:16;3.23;;;2.70;;
14849;SDS011;7517;48.400;11.770;2023-03-31T05:43:43;3.37;;;2.83;;
14849;SDS011;7517;48.400;11.770;2023-03-31T05:46:13;5.37;;;3.60;;
14849;SDS011;7517;48.400;11.770;2023-03-31T05:48:42;4.63;;;2.80;;
14849;SDS011;7517;48.400;11.770;2023-03-31T05:51:10;3.50;;;3.07;;
14849;SDS011;7517;48.400;11.770;2023-03-31T05:53:37;6.57;;;4.10;;
14849;SDS011;7517;48.400;11.770;2023-03-31T05:56:06;4.13;;;3.53;;
14849;SDS011;7517;48.400;11.770;2023-03-31T05:58:36;4.20;;;3.47;;
14849;SDS011;7517;48.400;11.770;2023-03-31T06:01:04;3.63;;;3.33;;
14849;SDS011;7517;48.400;11.770;2023-03-31T06:03:36;3.77;;;3.37;;
14849;SDS011;7517;48.400;11.770;2023-03-31T06:06:06;4.67;;;3.67;;
14849;SDS011;7517;48.400;11.770;2023-03-31T06:08:37;3.87;;;2.90;;
14849;SDS011;7517;48.400;11.770;2023-03-31T06:11:05;3.80;;;3.17;;
14849;SDS011;7517;48.400;11.770;2023-03-31T06:13:34;4.93;;;3.10;;
14849;SDS011;7517;48.400;11.770;2023-03-31T06:16:03;4.77;;;3.13;;
14849;SDS011;7517;48.400;11.770;2023-03-31T06:18:32;3.63;;;3.33;;
14849;SDS011;7517;48.400;11.770;2023-03-31T06:21:03;5.77;;;3.23;;
14849;SDS011;7517;48.400;11.770;2023-03-31T06:23:31;7.83;;;3.20;;
14849;SDS011;7517;48.400;11.770;2023-03-31T06:26:00;6.43;;;3.47;;
14849;SDS011;7517;48.400;11.770;2023-03-31T06:28:30;3.87;;;3.37;;
14849;SDS011;7517;48.400;11.770;2023-03-31T06:30:58;4.17;;;3.33;;
14849;SDS011;7517;48.400;11.770;2023-03-31T06:33:30;4.63;;;3.50;;
14849;SDS011;7517;48.400;11.770;2023-03-31T06:35:59;4.20;;;3.50;;
14849;SDS011;7517;48.400;11.770;2023-03-31T06:38:29;4.33;;;2.80;;
14849;SDS011;7517;48.400;11.770;2023-03-31T06:40:57;4.50;;;3.17;;
14849;SDS011;7517;48.400;11.770;2023-03-31T06:43:25;3.93;;;3.23;;
14849;SDS011;7517;48.400;11.770;2023-03-31T06:45:52;4.53;;;3.17;;
14849;SDS011;7517;48.400;11.770;2023-03-31T06:48:21;3.83;;;3.07;;
14849;SDS011;7517;48.400;11.770;2023-03-31T06:50:49;6.23;;;3.60;;
14849;SDS011;7517;48.400;11.770;2023-03-31T06:53:19;7.23;;;4.17;;
14849;SDS011;7517;48.400;11.770;2023-03-31T06:55:47;7.57;;;4.13;;
14849;SDS011;7517;48.400;11.770;2023-03-31T06:58:14;5.27;;;3.97;;
14849;SDS011;7517;48.400;11.770;2023-03-31T07:00:44;5.80;;;3.57;;
14849;SDS011;7517;48.400;11.770;2023-03-31T07:03:12;3.87;;;3.40;;
14849;SDS011;7517;48.400;11.770;2023-03-31T07:05:46;6.60;;;3.77;;
14849;SDS011;7517;48.400;11.770;2023-03-31T07:08:15;11.83;;;4.83;;
14849;SDS011;7517;48.400;11.770;2023-03-31T07:10:46;7.93;;;4.17;;
14849;SDS011;7517;48.400;11.770;2023-03-31T07:13:14;7.17;;;3.97;;
14849;SDS011;7517;48.400;11.770;2023-03-31T07:15:42;3.73;;;3.33;;
14849;SDS011;7517;48.400;11.770;2023-03-31T07:18:12;4.53;;;3.57;;
14849;SDS011;7517;48.400;11.770;2023-03-31T07:20:40;5.10;;;3.67;;
14849;SDS011;7517;48.400;11.770;2023-03-31T07:23:08;5.13;;;3.03;;
14849;SDS011;7517;48.400;11.770;2023-03-31T07:25:35;3.50;;;3.20;;
14849;SDS011;7517;48.400;11.770;2023-03-31T07:28:05;4.20;;;2.93;;
14849;SDS011;7517;48.400;11.770;2023-03-31T07:30:33;2.83;;;2.60;;
14849;SDS011;7517;48.400;11.770;2023-03-31T07:33:00;3.13;;;2.93;;
14849;SDS011;7517;48.400;11.770;2023-03-31T07:35:28;3.67;;;2.90;;
14849;SDS011;7517;48.400;11.770;2023-03-31T07:37:55;3.40;;;2.70;;
14849;SDS011;7517;48.400;11.770;2023-03-31T07:40:23;4.30;;;3.50;;
14849;SDS011;7517;48.400;11.770;2023-03-31T07:42:54;3.30;;;2.77;;
14849;SDS011;7517;48.400;11.770;2023-03-31T07:45:24;3.97;;;2.87;;
14849;SDS011;7517;48.400;11.770;2023-03-31T07:47:52;3.30;;;3.07;;
14849;SDS011;7517;48.400;11.770;2023-03-31T07:50:21;4.30;;;3.43;;
14849;SDS011;7517;48.400;11.770;2023-03-31T07:52:49;4.37;;;3.40;;
14849;SDS011;7517;48.400;11.770;2023-03-31T07:55:17;3.50;;;3.10;;
14849;SDS011;7517;48.400;11.770;2023-03-31T07:57:45;3.80;;;2.90;;
14849;SDS011;7517;48.400;11.770;2023-03-31T08:00:13;6.20;;;4.10;;
14849;SDS011;7517;48.400;11.770;2023-03-31T08:02:44;7.97;;;5.63;;
14849;SDS011;7517;48.400;11.770;2023-03-31T08:05:13;5.20;;;4.70;;
14849;SDS011;7517;48.400;11.770;2023-03-31T08:07:46;6.03;;;4.70;;
14849;SDS011;7517;48.400;11.770;2023-03-31T08:10:16;7.03;;;4.50;;
14849;SDS011;7517;48.400;11.770;2023-03-31T08:12:45;4.63;;;4.20;;
14849;SDS011;7517;48.400;11.770;2023-03-31T08:15:14;3.50;;;3.20;;
14849;SDS011;7517;48.400;11.770;2023-03-31T08:17:42;3.90;;;3.23;;
14849;SDS011;7517;48.400;11.770;2023-03-31T08:20:11;3.30;;;3.00;;
14849;SDS011;7517;48.400;11.770;2023-03-31T08:22:40;4.70;;;4.30;;
14849;SDS011;7517;48.400;11.770;2023-03-31T08:25:08;4.53;;;3.97;;
14849;SDS011;7517;48.400;11.770;2023-03-31T08:27:36;8.10;;;6.83;;
14849;SDS011;7517;48.400;11.770;2023-03-31T08:30:06;8.53;;;5.57;;
14849;SDS011;7517;48.400;11.770;2023-03-31T08:32:37;8.60;;;6.33;;
14849;SDS011;7517;48.400;11.770;2023-03-31T08:35:10;7.37;;;6.67;;
14849;SDS011;7517;48.400;11.770;2023-03-31T08:37:39;8.67;;;7.10;;
14849;SDS011;7517;48.400;11.770;2023-03-31T08:40:09;6.43;;;5.13;;
14849;SDS011;7517;48.400;11.770;2023-03-31T08:42:45;7.33;;;6.07;;
14849;SDS011;7517;48.400;11.770;2023-03-31T08:45:17;4.37;;;3.97;;
14849;SDS011;7517;48.400;11.770;2023-03-31T08:47:50;7.57;;;5.07;;
14849;SDS011;7517;48.400;11.770;2023-03-31T08:50:26;6.97;;;5.10;;
14849;SDS011;7517;48.400;11.770;2023-03-31T08:53:01;5.17;;;4.67;;
14849;SDS011;7517;48.400;11.770;2023-03-31T08:55:39;4.73;;;3.37;;
14849;SDS011;7517;48.400;11.770;2023-03-31T08:58:17;3.50;;;3.20;;
14849;SDS011;7517;48.400;11.770;2023-03-31T09:01:00;3.33;;;2.93;;
14849;SDS011;7517;48.400;11.770;2023-03-31T09:03:42;6.43;;;3.80;;
14849;SDS011;7517;48.400;11.770;2023-03-31T09:06:30;3.90;;;3.50;;
14849;SDS011;7517;48.400;11.770;2023-03-31T09:09:04;5.80;;;3.33;;
14849;SDS011;7517;48.400;11.770;2023-03-31T09:11:42;3.10;;;2.90;;
14849;SDS011;7517;48.400;11.770;2023-03-31T09:14:21;3.37;;;3.07;;
14849;SDS011;7517;48.400;11.770;2023-03-31T09:17:01;3.07;;;2.77;;
14849;SDS011;7517;48.400;11.770;2023-03-31T09:19:42;3.43;;;3.13;;
14849;SDS011;7517;48.400;11.770;2023-03-31T09:22:18;3.20;;;2.90;;
14849;SDS011;7517;48.400;11.770;2023-03-31T09:24:54;4.43;;;3.07;;
14849;SDS011;7517;48.400;11.770;2023-03-31T09:27:26;3.33;;;2.70;;
14849;SDS011;7517;48.400;11.770;2023-03-31T09:30:00;3.30;;;3.00;;
14849;SDS011;7517;48.400;11.770;2023-03-31T09:32:38;3.57;;;3.23;;
14849;SDS011;7517;48.400;11.770;2023-03-31T09:35:15;2.97;;;2.77;;
14849;SDS011;7517;48.400;11.770;2023-03-31T09:37:48;6.10;;;3.00;;
14849;SDS011;7517;48.400;11.770;2023-03-31T09:40:18;2.90;;;2.70;;
14849;SDS011;7517;48.400;11.770;2023-03-31T09:42:50;3.50;;;3.20;;
14849;SDS011;7517;48.400;11.770;2023-03-31T09:45:24;4.00;;;3.13;;
14849;SDS011;7517;48.400;11.770;2023-03-31T09:47:55;4.53;;;3.00;;
14849;SDS011;7517;48.400;11.770;2023-03-31T09:50:26;3.90;;;2.83;;
14849;SDS011;7517;48.400;11.770;2023-03-31T09:52:58;3.03;;;2.77;;
14849;SDS011;7517;48.400;11.770;2023-03-31T09:55:31;4.20;;;2.83;;
14849;SDS011;7517;48.400;11.770;2023-03-31T09:58:13;3.90;;;2.63;;
14849;SDS011;7517;48.400;11.770;2023-03-31T10:00:42;3.70;;;2.73;;
14849;SDS011;7517;48.400;11.770;2023-03-31T10:03:27;2.50;;;2.30;;
14849;SDS011;7517;48.400;11.770;2023-03-31T10:06:01;2.77;;;2.33;;
14849;SDS011;7517;48.400;11.770;2023-03-31T10:08:39;2.63;;;2.10;;
14849;SDS011;7517;48.400;11.770;2023-03-31T10:11:13;4.00;;;2.37;;
14849;SDS011;7517;48.400;11.770;2023-03-31T10:13:43;2.53;;;2.00;;
14849;SDS011;7517;48.400;11.770;2023-03-31T10:16:20;2.20;;;2.00;;
14849;SDS011;7517;48.400;11.770;2023-03-31T10:18:52;2.37;;;1.90;;
14849;SDS011;7517;48.400;11.770;2023-03-31T10:21:22;1.73;;;1.63;;
14849;SDS011;7517;48.400;11.770;2023-03-31T10:23:53;1.50;;;1.40;;
14849;SDS011;7517;48.400;11.770;2023-03-31T10:26:22;1.70;;;1.60;;
14849;SDS011;7517;48.400;11.770;2023-03-31T10:28:53;1.70;;;1.50;;
14849;SDS011;7517;48.400;11.770;2023-03-31T10:31:23;2.20;;;2.00;;
14849;SDS011;7517;48.400;11.770;2023-03-31T10:34:00;1.60;;;1.50;;
14849;SDS011;7517;48.400;11.770;2023-03-31T10:36:32;1.90;;;1.50;;
14849;SDS011;7517;48.400;11.770;2023-03-31T10:39:04;1.60;;;1.50;;
14849;SDS011;7517;48.400;11.770;2023-03-31T10:41:33;1.50;;;1.37;;
14849;SDS011;7517;48.400;11.770;2023-03-31T10:44:01;1.27;;;1.10;;
14849;SDS011;7517;48.400;11.770;2023-03-31T10:46:38;1.30;;;1.20;;
14849;SDS011;7517;48.400;11.770;2023-03-31T10:49:14;1.50;;;1.40;;
14849;SDS011;7517;48.400;11.770;2023-03-31T10:51:51;1.33;;;1.23;;
14849;SDS011;7517;48.400;11.770;2023-03-31T10:54:21;1.90;;;1.13;;
14849;SDS011;7517;48.400;11.770;2023-03-31T10:56:50;1.20;;;1.03;;
14849;SDS011;7517;48.400;11.770;2023-03-31T10:59:28;2.83;;;1.10;;
14849;SDS011;7517;48.400;11.770;2023-03-31T11:05:26;1.43;;;1.00;;
14849;SDS011;7517;48.400;11.770;2023-03-31T11:08:08;1.30;;;1.20;;
14849;SDS011;7517;48.400;11.770;2023-03-31T11:11:09;1.13;;;0.93;;
14849;SDS011;7517;48.400;11.770;2023-03-31T11:13:58;0.93;;;0.83;;
14849;SDS011;7517;48.400;11.770;2023-03-31T11:16:37;1.00;;;0.80;;
14849;SDS011;7517;48.400;11.770;2023-03-31T11:19:19;2.83;;;1.00;;
14849;SDS011;7517;48.400;11.770;2023-03-31T11:22:04;1.37;;;1.20;;
14849;SDS011;7517;48.400;11.770;2023-03-31T11:25:01;1.13;;;0.90;;
14849;SDS011;7517;48.400;11.770;2023-03-31T11:27:51;0.67;;;0.67;;
14849;SDS011;7517;48.400;11.770;2023-03-31T11:30:31;1.70;;;0.70;;
14849;SDS011;7517;48.400;11.770;2023-03-31T11:33:13;0.57;;;0.57;;
14849;SDS011;7517;48.400;11.770;2023-03-31T11:36:03;2.13;;;0.87;;
14849;SDS011;7517;48.400;11.770;2023-03-31T11:38:50;0.63;;;0.60;;
14849;SDS011;7517;48.400;11.770;2023-03-31T11:41:47;1.23;;;0.70;;
14849;SDS011;7517;48.400;11.770;2023-03-31T11:44:21;1.07;;;0.77;;
14849;SDS011;7517;48.400;11.770;2023-03-31T11:46:53;1.07;;;0.50;;
14849;SDS011;7517;48.400;11.770;2023-03-31T11:49:26;0.80;;;0.60;;
14849;SDS011;7517;48.400;11.770;2023-03-31T11:52:02;0.67;;;0.30;;
14849;SDS011;7517;48.400;11.770;2023-03-31T11:54:35;0.50;;;0.30;;
14849;SDS011;7517;48.400;11.770;2023-03-31T11:57:11;0.73;;;0.57;;
14849;SDS011;7517;48.400;11.770;2023-03-31T11:59:49;0.93;;;0.87;;
14849;SDS011;7517;48.400;11.770;2023-03-31T12:02:25;0.60;;;0.40;;
14849;SDS011;7517;48.400;11.770;2023-03-31T12:05:04;0.47;;;0.37;;
14849;SDS011;7517;48.400;11.770;2023-03-31T12:07:37;0.40;;;0.30;;
14849;SDS011;7517;48.400;11.770;2023-03-31T12:10:14;0.60;;;0.60;;
14849;SDS011;7517;48.400;11.770;2023-03-31T12:12:48;0.50;;;0.50;;
14849;SDS011;7517;48.400;11.770;2023-03-31T12:15:28;0.83;;;0.77;;
14849;SDS011;7517;48.400;11.770;2023-03-31T12:18:01;1.13;;;0.60;;
14849;SDS011;7517;48.400;11.770;2023-03-31T12:20:38;1.10;;;0.53;;
14849;SDS011;7517;48.400;11.770;2023-03-31T12:23:15;0.90;;;0.57;;
14849;SDS011;7517;48.400;11.770;2023-03-31T12:25:49;1.00;;;0.60;;
14849;SDS011;7517;48.400;11.770;2023-03-31T12:28:24;0.60;;;0.60;;
14849;SDS011;7517;48.400;11.770;2023-03-31T12:30:59;0.80;;;0.50;;
14849;SDS011;7517;48.400;11.770;2023-03-31T12:33:30;1.20;;;0.60;;
14849;SDS011;7517;48.400;11.770;2023-03-31T12:36:09;0.60;;;0.50;;
14849;SDS011;7517;48.400;11.770;2023-03-31T12:38:54;1.37;;;0.57;;
14849;SDS011;7517;48.400;11.770;2023-03-31T12:41:56;0.90;;;0.60;;
14849;SDS011;7517;48.400;11.770;2023-03-31T12:45:20;0.40;;;0.40;;
14849;SDS011;7517;48.400;11.770;2023-03-31T12:48:12;1.73;;;0.70;;
14849;SDS011;7517;48.400;11.770;2023-03-31T12:50:59;0.70;;;0.60;;
14849;SDS011;7517;48.400;11.770;2023-03-31T12:53:45;0.93;;;0.50;;
14849;SDS011;7517;48.400;11.770;2023-03-31T13:09:40;0.53;;;0.50;;
14849;SDS011;7517;48.400;11.770;2023-03-31T13:12:18;0.70;;;0.43;;
14849;SDS011;7517;48.400;11.770;2023-03-31T13:14:50;0.80;;;0.57;;
14849;SDS011;7517;48.400;11.770;2023-03-31T13:17:23;0.53;;;0.50;;
14849;SDS011;7517;48.400;11.770;2023-03-31T13:23:18;0.87;;;0.60;;
14849;SDS011;7517;48.400;11.770;2023-03-31T13:25:49;0.70;;;0.50;;
14849;SDS011;7517;48.400;11.770;2023-03-31T13:28:26;1.20;;;1.00;;
14849;SDS011;7517;48.400;11.770;2023-03-31T13:31:05;1.03;;;0.50;;
14849;SDS011;7517;48.400;11.770;2023-03-31T13:33:41;1.13;;;0.70;;
14849;SDS011;7517;48.400;11.770;2023-03-31T13:36:22;0.87;;;0.70;;
14849;SDS011;7517;48.400;11.770;2023-03-31T13:42:58;1.07;;;0.60;;
14849;SDS011;7517;48.400;11.770;2023-03-31T13:49:23;2.00;;;0.90;;
14849;SDS011;7517;48.400;11.770;2023-03-31T13:52:20;0.73;;;0.60;;
14849;SDS011;7517;48.400;11.770;2023-03-31T13:55:25;1.23;;;0.70;;
14849;SDS011;7517;48.400;11.770;2023-03-31T13:58:33;1.37;;;1.10;;
14849;SDS011;7517;48.400;11.770;2023-03-31T14:01:46;0.73;;;0.50;;
14849;SDS011;7517;48.400;11.770;2023-03-31T14:04:59;0.43;;;0.30;;
14849;SDS011;7517;48.400;11.770;2023-03-31T14:07:53;0.70;;;0.50;;
14849;SDS011;7517;48.400;11.770;2023-03-31T14:10:27;1.10;;;0.40;;
14849;SDS011;7517;48.400;11.770;2023-03-31T14:13:07;1.20;;;0.37;;
14849;SDS011;7517;48.400;11.770;2023-03-31T14:15:38;1.10;;;0.33;;
14849;SDS011;7517;48.400;11.770;2023-03-31T14:18:13;0.73;;;0.50;;
14849;SDS011;7517;48.400;11.770;2023-03-31T14:20:48;4.90;;;0.60;;
14849;SDS011;7517;48.400;11.770;2023-03-31T14:23:40;0.50;;;0.30;;
14849;SDS011;7517;48.400;11.770;2023-03-31T14:26:29;0.67;;;0.40;;
14849;SDS011;7517;48.400;11.770;2023-03-31T14:29:13;1.03;;;0.40;;
14849;SDS011;7517;48.400;11.770;2023-03-31T14:31:54;1.70;;;0.40;;
14849;SDS011;7517;48.400;11.770;2023-03-31T14:34:38;1.00;;;0.60;;
14849;SDS011;7517;48.400;11.770;2023-03-31T14:37:22;0.30;;;0.30;;
14849;SDS011;7517;48.400;11.770;2023-03-31T14:39:50;0.67;;;0.33;;
14849;SDS011;7517;48.400;11.770;2023-03-31T14:42:26;1.00;;;0.20;;
14849;SDS011;7517;48.400;11.770;2023-03-31T14:45:05;0.20;;;0.20;;
14849;SDS011;7517;48.400;11.770;2023-03-31T14:47:50;1.23;;;0.37;;
14849;SDS011;7517;48.400;11.770;2023-03-31T14:50:20;1.27;;;0.33;;
14849;SDS011;7517;48.400;11.770;2023-03-31T14:52:53;0.67;;;0.40;;
14849;SDS011;7517;48.400;11.770;2023-03-31T14:55:21;0.30;;;0.30;;
14849;SDS011;7517;48.400;11.770;2023-03-31T14:57:54;1.37;;;0.30;;
14849;SDS011;7517;48.400;11.770;2023-03-31T15:00:27;0.60;;;0.40;;
14849;SDS011;7517;48.400;11.770;2023-03-31T15:03:00;2.50;;;0.73;;
14849;SDS011;7517;48.400;11.770;2023-03-31T15:05:32;1.23;;;0.50;;
14849;SDS011;7517;48.400;11.770;2023-03-31T15:08:03;0.73;;;0.50;;
14849;SDS011;7517;48.400;11.770;2023-03-31T15:10:38;0.57;;;0.40;;
14849;SDS011;7517;48.400;11.770;2023-03-31T15:13:10;2.50;;;0.63;;
14849;SDS011;7517;48.400;11.770;2023-03-31T15:15:44;0.90;;;0.40;;
14849;SDS011;7517;48.400;11.770;2023-03-31T15:18:12;0.30;;;0.30;;
14849;SDS011;7517;48.400;11.770;2023-03-31T15:20:42;1.00;;;0.50;;
14849;SDS011;7517;48.400;11.770;2023-03-31T15:23:20;0.87;;;0.50;;
14849;SDS011;7517;48.400;11.770;2023-03-31T15:25:50;1.53;;;0.70;;
14849;SDS011;7517;48.400;11.770;2023-03-31T15:28:24;1.00;;;0.50;;
14849;SDS011;7517;48.400;11.770;2023-03-31T15:30:55;1.27;;;0.30;;
14849;SDS011;7517;48.400;11.770;2023-03-31T15:33:23;0.33;;;0.30;;
14849;SDS011;7517;48.400;11.770;2023-03-31T15:36:00;0.53;;;0.33;;
14849;SDS011;7517;48.400;11.770;2023-03-31T15:38:27;0.43;;;0.40;;
14849;SDS011;7517;48.400;11.770;2023-03-31T15:40:56;0.30;;;0.30;;
14849;SDS011;7517;48.400;11.770;2023-03-31T15:43:28;0.47;;;0.20;;
14849;SDS011;7517;48.400;11.770;2023-03-31T15:45:57;1.13;;;0.30;;
14849;SDS011;7517;48.400;11.770;2023-03-31T15:48:27;0.30;;;0.30;;
14849;SDS011;7517;48.400;11.770;2023-03-31T15:50:59;0.20;;;0.10;;
14849;SDS011;7517;48.400;11.770;2023-03-31T15:53:29;0.40;;;0.30;;
14849;SDS011;7517;48.400;11.770;2023-03-31T15:56:02;0.53;;;0.20;;
14849;SDS011;7517;48.400;11.770;2023-03-31T15:58:53;0.60;;;0.27;;
14849;SDS011;7517;48.400;11.770;2023-03-31T16:01:26;0.63;;;0.30;;
14849;SDS011;7517;48.400;11.770;2023-03-31T16:03:58;0.83;;;0.43;;